Time;durP1;ratioP1;P1;durP2;ratioP2;P2;SDS_P1;SDS_P2;PMS_P1;PMS_P2;Temp;Humidity;BMP_temperature;BMP_pressure;BME280_temperature;BME280_humidity;BME280_pressure;Samples;Min_cycle;Max_cycle;Signal;HPM_P1;HPM_P2
2023/12/17 00:01:04;;;;;;;8.65;1.20;;;10.80;99.90;;;;;;5131424;27;20137;-78
2023/12/17 00:03:30;;;;;;;3.05;1.05;;;10.80;99.90;;;;;;5131899;28;20069;-79
2023/12/17 00:05:56;;;;;;;5.00;1.15;;;10.70;99.90;;;;;;5132012;28;20056;-79
2023/12/17 00:08:22;;;;;;;5.72;1.15;;;10.80;99.90;;;;;;5114082;27;20080;-78
2023/12/17 00:10:51;;;;;;;2.80;1.08;;;10.70;99.90;;;;;;5135904;27;20095;-78
2023/12/17 00:13:18;;;;;;;7.43;1.00;;;10.70;99.90;;;;;;5135251;27;20114;-80
2023/12/17 00:15:44;;;;;;;5.80;0.90;;;10.70;99.90;;;;;;5136455;27;20171;-79
2023/12/17 00:18:11;;;;;;;4.10;0.88;;;10.70;99.90;;;;;;5117768;27;20110;-80
2023/12/17 00:20:37;;;;;;;2.70;1.00;;;10.70;99.90;;;;;;5135752;27;20064;-79
2023/12/17 00:23:04;;;;;;;2.05;0.90;;;10.70;99.90;;;;;;5136629;27;20066;-79
2023/12/17 00:25:30;;;;;;;2.72;0.95;;;10.70;99.90;;;;;;5135519;27;20025;-79
2023/12/17 00:27:56;;;;;;;1.77;0.65;;;10.80;99.90;;;;;;5136246;27;20019;-79
2023/12/17 00:30:22;;;;;;;4.93;0.70;;;10.70;99.90;;;;;;5099981;27;20050;-80
2023/12/17 00:32:48;;;;;;;5.50;1.10;;;10.70;99.90;;;;;;5136055;27;20109;-79
2023/12/17 00:35:14;;;;;;;4.03;0.88;;;10.70;99.90;;;;;;5135822;27;20034;-79
2023/12/17 00:37:40;;;;;;;1.73;0.80;;;10.70;99.90;;;;;;5136435;27;20027;-79
2023/12/17 00:40:06;;;;;;;4.47;1.00;;;10.70;99.90;;;;;;5117562;27;20119;-79
2023/12/17 00:42:32;;;;;;;5.85;1.27;;;10.70;99.90;;;;;;5134992;27;20030;-80
2023/12/17 00:44:58;;;;;;;6.47;1.13;;;10.70;99.90;;;;;;5135008;27;20405;-80
2023/12/17 00:47:24;;;;;;;6.65;0.80;;;10.70;99.90;;;;;;5133946;27;20035;-79
2023/12/17 00:49:50;;;;;;;4.78;0.90;;;10.70;99.90;;;;;;5134756;27;20030;-79
2023/12/17 00:52:15;;;;;;;3.08;0.73;;;10.80;99.90;;;;;;5134388;27;20034;-79
2023/12/17 00:54:41;;;;;;;2.63;0.47;;;10.80;99.90;;;;;;5134938;27;20027;-79
2023/12/17 00:57:07;;;;;;;1.83;0.60;;;10.90;99.90;;;;;;5134729;27;20485;-78
2023/12/17 00:59:32;;;;;;;2.15;0.60;;;10.90;99.90;;;;;;5115755;27;20055;-78
2023/12/17 01:01:58;;;;;;;1.42;0.55;;;11.00;99.90;;;;;;5135332;27;20035;-78
2023/12/17 01:04:24;;;;;;;3.35;0.50;;;11.00;99.90;;;;;;5134018;27;20520;-78
2023/12/17 01:06:49;;;;;;;0.80;0.35;;;11.00;99.90;;;;;;5135263;27;20020;-78
2023/12/17 01:09:15;;;;;;;0.82;0.28;;;11.00;99.90;;;;;;5133873;27;20023;-78
2023/12/17 01:11:42;;;;;;;2.33;0.32;;;11.00;99.90;;;;;;5134875;27;20042;-78
2023/12/17 01:14:08;;;;;;;1.20;0.40;;;11.00;99.90;;;;;;5135143;27;20034;-79
2023/12/17 01:16:33;;;;;;;2.33;0.47;;;11.10;99.90;;;;;;5134015;27;20028;-79
2023/12/17 01:18:59;;;;;;;3.03;0.52;;;11.10;99.90;;;;;;5134642;27;20027;-79
2023/12/17 01:21:25;;;;;;;0.68;0.28;;;11.10;99.90;;;;;;5132966;27;20380;-79
2023/12/17 01:23:50;;;;;;;2.45;0.38;;;11.00;99.90;;;;;;5134783;27;20027;-79
2023/12/17 01:26:26;;;;;;;0.57;0.30;;;11.00;99.90;;;;;;5133463;27;20023;-80
2023/12/17 01:28:56;;;;;;;0.30;0.20;;;11.00;99.90;;;;;;5134738;27;20345;-79
2023/12/17 01:31:21;;;;;;;1.00;0.45;;;11.00;99.90;;;;;;5133629;27;20055;-79
2023/12/17 01:33:47;;;;;;;1.35;0.70;;;11.00;99.90;;;;;;5134199;27;20384;-78
2023/12/17 01:36:13;;;;;;;0.50;0.22;;;11.00;99.90;;;;;;5134221;27;20051;-78
2023/12/17 01:38:39;;;;;;;1.88;0.30;;;11.10;99.90;;;;;;5133613;27;20023;-78
2023/12/17 01:41:06;;;;;;;1.33;0.20;;;11.00;99.90;;;;;;5134378;27;20062;-78
2023/12/17 01:43:32;;;;;;;1.10;0.30;;;11.00;99.90;;;;;;5133843;27;20079;-77
2023/12/17 01:45:59;;;;;;;0.55;0.10;;;11.10;99.90;;;;;;5133774;27;20043;-78
2023/12/17 01:48:26;;;;;;;1.67;0.30;;;11.10;99.90;;;;;;5133620;27;20429;-78
2023/12/17 01:50:53;;;;;;;1.80;0.20;;;11.10;99.90;;;;;;5133740;27;20023;-77
2023/12/17 01:53:20;;;;;;;1.95;0.30;;;11.10;99.90;;;;;;5133390;27;20031;-78
2023/12/17 01:55:49;;;;;;;1.95;0.30;;;11.10;99.90;;;;;;5133636;27;20039;-77
2023/12/17 01:58:16;;;;;;;1.13;0.52;;;11.10;99.90;;;;;;5133506;27;20089;-77
2023/12/17 02:00:46;;;;;;;1.42;0.70;;;11.10;99.90;;;;;;5133289;27;20044;-77
2023/12/17 02:03:12;;;;;;;2.00;0.50;;;11.10;99.90;;;;;;5133336;27;20456;-77
2023/12/17 02:05:37;;;;;;;0.40;0.25;;;11.10;99.90;;;;;;5132806;27;20022;-78
2023/12/17 02:08:04;;;;;;;2.75;0.70;;;11.10;99.90;;;;;;5115010;27;20095;-78
2023/12/17 02:10:30;;;;;;;5.05;0.55;;;11.10;99.90;;;;;;5132648;27;20042;-78
2023/12/17 02:12:59;;;;;;;2.33;0.30;;;11.10;99.90;;;;;;5132916;27;20334;-79
2023/12/17 02:15:25;;;;;;;1.50;0.45;;;11.10;99.90;;;;;;5133435;27;20031;-78
2023/12/17 02:17:50;;;;;;;1.95;0.35;;;11.10;99.90;;;;;;5133401;27;20023;-79
2023/12/17 02:20:16;;;;;;;1.05;0.30;;;11.10;99.90;;;;;;5115367;27;20023;-78
2023/12/17 02:22:43;;;;;;;1.98;0.60;;;11.10;99.90;;;;;;5133258;27;20027;-79
2023/12/17 02:25:10;;;;;;;2.25;0.50;;;11.10;99.90;;;;;;5133958;27;20031;-78
2023/12/17 02:27:36;;;;;;;3.60;0.50;;;11.10;99.90;;;;;;5132910;27;20472;-77
2023/12/17 02:30:02;;;;;;;3.53;0.35;;;11.10;99.90;;;;;;5133485;27;20019;-78
2023/12/17 02:32:28;;;;;;;1.08;0.40;;;11.10;99.90;;;;;;5132924;27;20031;-77
2023/12/17 02:34:54;;;;;;;2.90;0.75;;;11.10;99.90;;;;;;5133064;27;20495;-78
2023/12/17 02:37:20;;;;;;;1.08;0.20;;;11.00;99.90;;;;;;5113977;27;20023;-78
2023/12/17 02:39:46;;;;;;;0.70;0.20;;;11.10;99.90;;;;;;5133104;27;20043;-78
2023/12/17 02:42:11;;;;;;;1.17;0.30;;;11.00;99.90;;;;;;5133635;27;20042;-79
2023/12/17 02:44:37;;;;;;;1.55;0.30;;;11.00;99.90;;;;;;5132454;27;20019;-78
2023/12/17 02:47:03;;;;;;;1.30;0.20;;;11.00;99.90;;;;;;5132798;27;20071;-79
2023/12/17 02:49:29;;;;;;;1.65;0.35;;;11.00;99.90;;;;;;5132068;27;20056;-79
2023/12/17 02:51:55;;;;;;;0.68;0.20;;;11.00;99.90;;;;;;5132717;27;20129;-78
2023/12/17 02:54:21;;;;;;;0.98;0.20;;;11.00;99.90;;;;;;5132394;27;20437;-78
2023/12/17 02:56:47;;;;;;;2.13;0.22;;;10.90;99.90;;;;;;5132550;27;20027;-78
2023/12/17 02:59:14;;;;;;;0.35;0.25;;;10.90;99.90;;;;;;5132299;27;20047;-78
2023/12/17 03:01:41;;;;;;;1.80;0.50;;;10.90;99.90;;;;;;5131976;27;20495;-78
2023/12/17 03:04:07;;;;;;;2.35;0.20;;;10.90;99.90;;;;;;5132442;27;20109;-78
2023/12/17 03:06:33;;;;;;;2.67;0.35;;;10.90;99.90;;;;;;5131506;27;20034;-79
2023/12/17 03:08:59;;;;;;;3.25;0.50;;;10.90;99.90;;;;;;5113994;27;20464;-78
2023/12/17 03:11:25;;;;;;;2.70;0.35;;;10.90;99.90;;;;;;5113186;27;20065;-79
2023/12/17 03:13:50;;;;;;;3.65;0.35;;;10.90;99.90;;;;;;5132391;27;20525;-78
2023/12/17 03:16:16;;;;;;;2.92;0.40;;;10.90;99.90;;;;;;5132248;27;20019;-78
2023/12/17 03:18:42;;;;;;;1.50;0.40;;;10.90;99.90;;;;;;5131885;27;20607;-78
2023/12/17 03:21:08;;;;;;;0.60;0.30;;;10.90;99.90;;;;;;5113697;27;20027;-79
2023/12/17 03:23:36;;;;;;;1.27;0.45;;;10.80;99.90;;;;;;5131649;27;20114;-79
2023/12/17 03:26:03;;;;;;;1.23;0.38;;;10.90;99.90;;;;;;5132100;27;20023;-79
2023/12/17 03:28:28;;;;;;;0.63;0.20;;;10.90;99.90;;;;;;5131440;27;20345;-78
2023/12/17 03:30:54;;;;;;;1.13;0.25;;;10.90;99.90;;;;;;5132492;27;20080;-78
2023/12/17 03:33:20;;;;;;;2.00;0.30;;;10.90;99.90;;;;;;5132053;27;20036;-78
2023/12/17 03:35:46;;;;;;;2.50;0.40;;;10.80;99.90;;;;;;5131425;27;20456;-79
2023/12/17 03:38:13;;;;;;;1.15;0.20;;;10.90;99.90;;;;;;5132072;27;20042;-78
2023/12/17 03:40:39;;;;;;;1.48;0.32;;;10.80;99.90;;;;;;5113083;27;20569;-79
2023/12/17 03:43:04;;;;;;;2.85;0.40;;;10.80;99.90;;;;;;5131780;27;20110;-77
2023/12/17 03:45:31;;;;;;;0.75;0.30;;;10.80;99.90;;;;;;5131472;27;20046;-78
2023/12/17 03:47:57;;;;;;;1.33;0.35;;;10.80;99.90;;;;;;5132108;27;20023;-78
2023/12/17 03:50:23;;;;;;;3.20;0.47;;;10.80;99.90;;;;;;5131656;27;20030;-78
2023/12/17 03:52:49;;;;;;;1.23;0.50;;;10.80;99.90;;;;;;5113109;28;20376;-78
2023/12/17 03:55:15;;;;;;;4.70;0.65;;;10.70;99.90;;;;;;5131641;27;20031;-79
2023/12/17 03:57:41;;;;;;;2.47;0.70;;;10.70;99.90;;;;;;5131170;27;20031;-79
2023/12/17 04:00:10;;;;;;;2.60;0.60;;;10.70;99.90;;;;;;5132077;27;20051;-79
2023/12/17 04:02:36;;;;;;;2.22;0.57;;;10.70;99.90;;;;;;5131957;27;20031;-78
2023/12/17 04:05:02;;;;;;;3.63;0.90;;;10.70;99.90;;;;;;5133017;27;20107;-78
2023/12/17 04:07:30;;;;;;;5.03;0.80;;;10.70;99.90;;;;;;5131598;28;20087;-78
2023/12/17 04:09:57;;;;;;;1.65;0.57;;;10.70;99.90;;;;;;5132582;28;20027;-78
2023/12/17 04:12:23;;;;;;;4.55;0.90;;;10.70;99.90;;;;;;5131805;28;20035;-77
2023/12/17 04:14:48;;;;;;;3.38;0.70;;;10.70;99.90;;;;;;5131018;28;20081;-78
2023/12/17 04:17:14;;;;;;;3.10;0.57;;;10.70;99.90;;;;;;5131840;28;20027;-80
2023/12/17 04:19:40;;;;;;;3.85;0.80;;;10.70;99.90;;;;;;5131071;28;20027;-79
2023/12/17 04:22:06;;;;;;;5.90;1.25;;;10.80;99.90;;;;;;5131594;28;20020;-78
2023/12/17 04:24:31;;;;;;;3.90;1.00;;;10.70;99.90;;;;;;5131305;28;20023;-76
2023/12/17 04:26:57;;;;;;;2.28;0.80;;;10.80;99.90;;;;;;5131535;28;20023;-77
2023/12/17 04:29:23;;;;;;;6.47;0.98;;;10.80;99.90;;;;;;5131609;28;20031;-78
2023/12/17 04:31:49;;;;;;;3.22;0.70;;;10.80;99.90;;;;;;5130882;28;20061;-77
2023/12/17 04:34:15;;;;;;;5.88;1.23;;;10.80;99.90;;;;;;5131620;28;20031;-78
2023/12/17 04:36:41;;;;;;;3.30;0.90;;;10.80;99.90;;;;;;5112166;28;20027;-79
2023/12/17 04:39:09;;;;;;;3.53;0.70;;;10.90;99.90;;;;;;5131167;28;20055;-76
2023/12/17 04:41:36;;;;;;;3.13;0.68;;;10.90;99.90;;;;;;5131140;28;20055;-77
2023/12/17 04:44:02;;;;;;;6.57;0.90;;;10.90;99.90;;;;;;5131364;28;20038;-77
2023/12/17 04:46:28;;;;;;;4.45;0.90;;;10.90;99.90;;;;;;5131107;28;20024;-79
2023/12/17 04:48:55;;;;;;;4.90;1.10;;;10.90;99.90;;;;;;5131286;28;20451;-79
2023/12/17 04:51:22;;;;;;;4.50;0.77;;;10.90;99.90;;;;;;5131245;28;20027;-79
2023/12/17 04:53:51;;;;;;;5.55;1.05;;;10.90;99.90;;;;;;5130659;28;20042;-79
2023/12/17 04:56:17;;;;;;;3.22;0.65;;;10.90;99.90;;;;;;5134894;27;20019;-79
2023/12/17 04:58:43;;;;;;;4.60;1.00;;;10.90;99.90;;;;;;5134661;27;20157;-78
2023/12/17 05:01:09;;;;;;;6.10;0.93;;;10.90;99.90;;;;;;5116504;27;20075;-79
2023/12/17 05:03:36;;;;;;;8.27;1.58;;;10.90;99.90;;;;;;5134803;27;20031;-79
2023/12/17 05:06:02;;;;;;;2.75;0.65;;;10.90;99.90;;;;;;5134934;27;20023;-78
2023/12/17 05:08:28;;;;;;;7.20;1.45;;;10.90;99.90;;;;;;5135019;27;20027;-79
2023/12/17 05:10:54;;;;;;;3.58;1.05;;;10.90;99.90;;;;;;5134741;27;20033;-78
2023/12/17 05:13:20;;;;;;;6.88;1.10;;;10.90;99.90;;;;;;5134886;27;20019;-79
2023/12/17 05:15:45;;;;;;;11.77;1.65;;;10.90;99.90;;;;;;5134487;27;20438;-79
2023/12/17 05:18:11;;;;;;;6.97;1.70;;;10.90;99.90;;;;;;5134962;27;20483;-79
2023/12/17 05:20:37;;;;;;;10.38;1.63;;;10.90;99.90;;;;;;5134510;27;20035;-79
2023/12/17 05:23:03;;;;;;;7.30;1.83;;;10.90;99.90;;;;;;5135043;27;20135;-79
2023/12/17 05:25:28;;;;;;;8.90;1.77;;;10.90;99.90;;;;;;5116102;27;20153;-79
2023/12/17 05:27:54;;;;;;;9.15;1.50;;;10.90;99.90;;;;;;5133896;27;20019;-79
2023/12/17 05:30:20;;;;;;;9.27;1.98;;;10.90;99.90;;;;;;5116046;27;20454;-79
2023/12/17 05:32:45;;;;;;;11.93;2.03;;;11.00;99.90;;;;;;5134009;27;20031;-80
2023/12/17 05:35:11;;;;;;;8.13;1.85;;;10.90;99.90;;;;;;5115874;27;20029;-80
2023/12/17 05:37:37;;;;;;;12.45;2.20;;;11.00;99.90;;;;;;5134122;27;20056;-77
2023/12/17 05:40:03;;;;;;;10.52;2.13;;;11.00;99.90;;;;;;5134295;27;20023;-80
2023/12/17 05:42:29;;;;;;;6.28;1.35;;;10.90;99.90;;;;;;5134347;27;20019;-78
2023/12/17 05:44:54;;;;;;;11.80;2.35;;;11.00;99.90;;;;;;5133895;27;20170;-79
2023/12/17 05:47:20;;;;;;;11.20;2.33;;;11.00;99.90;;;;;;5134620;27;20035;-79
2023/12/17 05:49:46;;;;;;;11.82;1.98;;;11.00;99.90;;;;;;5133936;27;20030;-79
2023/12/17 05:52:11;;;;;;;10.55;2.08;;;11.00;99.90;;;;;;5134984;27;20098;-79
2023/12/17 05:54:38;;;;;;;11.85;2.25;;;11.00;99.90;;;;;;5134355;27;20027;-78
2023/12/17 05:57:04;;;;;;;10.70;1.60;;;11.00;99.90;;;;;;5135843;27;20035;-79
2023/12/17 05:59:30;;;;;;;7.28;1.45;;;11.00;99.90;;;;;;5136768;27;20186;-79
2023/12/17 06:01:59;;;;;;;10.63;1.92;;;11.00;99.90;;;;;;5135779;27;20221;-78
2023/12/17 06:04:25;;;;;;;8.10;2.08;;;11.00;99.90;;;;;;5135412;27;20027;-78
2023/12/17 06:06:50;;;;;;;10.85;2.22;;;11.00;99.90;;;;;;5133680;27;20023;-78
2023/12/17 06:09:17;;;;;;;10.23;2.17;;;11.00;99.90;;;;;;5134663;27;20035;-79
2023/12/17 06:11:42;;;;;;;9.43;1.60;;;11.00;99.90;;;;;;5133088;27;20567;-79
2023/12/17 06:14:08;;;;;;;9.80;1.60;;;11.00;99.90;;;;;;5134094;27;20073;-78
2023/12/17 06:16:39;;;;;;;9.52;2.22;;;11.00;99.90;;;;;;5133682;27;20031;-79
2023/12/17 06:19:05;;;;;;;8.68;1.83;;;11.00;99.90;;;;;;5134457;27;20023;-79
2023/12/17 06:21:31;;;;;;;12.45;2.03;;;11.00;99.90;;;;;;5134252;27;20046;-79
2023/12/17 06:23:59;;;;;;;9.13;1.77;;;11.00;99.90;;;;;;5133268;27;20463;-79
2023/12/17 06:26:26;;;;;;;9.63;1.88;;;11.00;99.90;;;;;;5134087;27;20068;-79
2023/12/17 06:28:51;;;;;;;8.48;1.40;;;11.00;99.90;;;;;;5133823;27;20043;-80
2023/12/17 06:31:17;;;;;;;8.40;1.75;;;11.00;99.90;;;;;;5133870;27;20019;-80
2023/12/17 06:33:43;;;;;;;7.90;1.92;;;11.00;99.90;;;;;;5133322;27;20376;-79
2023/12/17 06:36:09;;;;;;;8.30;1.67;;;11.10;99.90;;;;;;5134067;27;20133;-80
2023/12/17 06:38:35;;;;;;;6.78;1.80;;;11.00;99.90;;;;;;5133565;27;20035;-79
2023/12/17 06:41:02;;;;;;;8.48;1.83;;;11.10;99.90;;;;;;5133686;27;20047;-79
2023/12/17 06:43:27;;;;;;;6.45;1.42;;;11.10;99.90;;;;;;5133714;27;20110;-79
2023/12/17 06:45:54;;;;;;;10.30;1.40;;;11.10;99.90;;;;;;5132995;27;20058;-81
2023/12/17 06:48:20;;;;;;;8.60;1.20;;;11.10;99.90;;;;;;5134152;27;20067;-79
2023/12/17 06:50:45;;;;;;;8.02;1.70;;;11.10;99.90;;;;;;5133073;27;20207;-79
2023/12/17 06:53:15;;;;;;;10.13;1.95;;;11.10;99.90;;;;;;5114651;27;20031;-79
2023/12/17 06:55:42;;;;;;;12.65;2.15;;;11.00;99.90;;;;;;5133105;27;20042;-79
2023/12/17 06:58:08;;;;;;;7.28;1.95;;;11.00;99.90;;;;;;5132856;27;20023;-79
2023/12/17 07:00:36;;;;;;;8.15;1.40;;;11.00;99.90;;;;;;5133228;27;20069;-79
2023/12/17 07:03:02;;;;;;;4.65;1.25;;;11.00;99.90;;;;;;5133574;27;20027;-79
2023/12/17 07:05:28;;;;;;;5.20;1.30;;;11.00;99.90;;;;;;5133302;27;20023;-80
2023/12/17 07:07:54;;;;;;;10.70;1.70;;;11.00;99.90;;;;;;5132614;27;20027;-79
2023/12/17 07:10:20;;;;;;;5.55;1.65;;;11.10;99.90;;;;;;5114197;27;20034;-79
2023/12/17 07:12:46;;;;;;;6.30;1.42;;;11.10;99.90;;;;;;5132477;27;20110;-79
2023/12/17 07:15:12;;;;;;;7.05;1.45;;;11.10;99.90;;;;;;5132796;27;20030;-79
2023/12/17 07:17:38;;;;;;;5.53;1.33;;;11.10;99.90;;;;;;5131750;27;20027;-79
2023/12/17 07:20:05;;;;;;;10.38;1.70;;;11.10;99.90;;;;;;5132337;27;20027;-78
2023/12/17 07:22:30;;;;;;;5.72;1.33;;;11.10;99.90;;;;;;5132566;27;20098;-79
2023/12/17 07:24:56;;;;;;;6.00;1.40;;;11.10;99.90;;;;;;5131616;27;20889;-78
2023/12/17 07:27:22;;;;;;;5.03;1.83;;;11.10;99.90;;;;;;5132366;27;20019;-79
2023/12/17 07:29:47;;;;;;;5.53;1.10;;;11.20;99.90;;;;;;5132169;27;20019;-79
2023/12/17 07:32:13;;;;;;;6.97;1.45;;;11.10;99.90;;;;;;5132582;27;20027;-79
2023/12/17 07:34:39;;;;;;;8.52;1.50;;;11.10;99.90;;;;;;5132280;27;20030;-79
2023/12/17 07:37:04;;;;;;;4.15;1.00;;;11.20;99.90;;;;;;5114044;27;20465;-79
2023/12/17 07:39:30;;;;;;;5.50;1.02;;;11.20;99.90;;;;;;5132917;27;20027;-78
2023/12/17 07:41:56;;;;;;;5.97;1.30;;;11.20;99.90;;;;;;5132003;27;20031;-79
2023/12/17 07:44:22;;;;;;;7.28;1.27;;;11.20;99.90;;;;;;5132316;27;20022;-80
2023/12/17 07:46:47;;;;;;;3.30;1.40;;;11.20;99.90;;;;;;5131692;27;20054;-79
2023/12/17 07:49:13;;;;;;;5.78;1.00;;;11.20;99.90;;;;;;5132048;27;20046;-79
2023/12/17 07:51:39;;;;;;;7.55;1.30;;;11.20;99.90;;;;;;5132070;27;20027;-79
2023/12/17 07:54:07;;;;;;;5.47;1.20;;;11.20;99.90;;;;;;5131830;27;20443;-80
2023/12/17 07:56:33;;;;;;;6.07;1.13;;;11.20;99.90;;;;;;5131885;27;20047;-80
2023/12/17 07:58:59;;;;;;;5.57;1.10;;;11.20;99.90;;;;;;5113180;27;20062;-80
2023/12/17 08:01:28;;;;;;;5.57;1.10;;;11.20;99.90;;;;;;5132604;27;20050;-79
2023/12/17 08:03:55;;;;;;;7.80;1.60;;;11.20;99.90;;;;;;5131306;27;20031;-79
2023/12/17 08:06:20;;;;;;;7.68;0.90;;;11.20;99.90;;;;;;5132152;27;20027;-80
2023/12/17 08:08:46;;;;;;;6.38;1.20;;;11.20;99.90;;;;;;5131269;28;20388;-82
2023/12/17 08:11:12;;;;;;;7.60;1.33;;;11.20;99.90;;;;;;5132062;28;20026;-80
2023/12/17 08:13:38;;;;;;;2.42;1.02;;;11.20;99.90;;;;;;5131376;28;20424;-80
2023/12/17 08:16:04;;;;;;;7.15;1.00;;;11.20;99.90;;;;;;5130962;28;20114;-80
2023/12/17 08:18:30;;;;;;;8.15;1.15;;;11.20;99.90;;;;;;5113341;28;20071;-80
2023/12/17 08:20:57;;;;;;;8.15;1.40;;;11.20;99.90;;;;;;5130800;28;20020;-80
2023/12/17 08:23:23;;;;;;;5.10;1.00;;;11.20;99.90;;;;;;5131480;28;20023;-79
2023/12/17 08:25:49;;;;;;;6.70;1.52;;;11.20;99.90;;;;;;5112334;28;20042;-79
2023/12/17 08:28:16;;;;;;;4.43;0.95;;;11.20;99.90;;;;;;5131949;28;20038;-78
2023/12/17 08:30:41;;;;;;;4.65;1.25;;;11.20;99.90;;;;;;5134623;27;20023;-79
2023/12/17 08:33:07;;;;;;;5.20;1.00;;;11.20;99.90;;;;;;5135471;27;20038;-80
2023/12/17 08:35:36;;;;;;;5.32;1.13;;;11.30;99.90;;;;;;5135804;27;20088;-80
2023/12/17 08:38:05;;;;;;;5.38;0.93;;;11.20;99.90;;;;;;5134844;27;20035;-79
2023/12/17 08:40:37;;;;;;;6.38;1.40;;;11.30;99.90;;;;;;5135914;27;20023;-79
2023/12/17 08:43:03;;;;;;;7.05;1.05;;;11.20;99.90;;;;;;5135244;27;20025;-79
2023/12/17 08:45:30;;;;;;;7.57;1.50;;;11.20;99.90;;;;;;5135676;27;20023;-80
2023/12/17 08:47:56;;;;;;;8.45;1.67;;;11.20;99.90;;;;;;5134976;27;20030;-80
2023/12/17 08:50:21;;;;;;;7.03;1.38;;;11.20;99.90;;;;;;5135665;27;20050;-81
2023/12/17 08:52:47;;;;;;;9.35;1.17;;;11.20;99.90;;;;;;5134493;27;20063;-79
2023/12/17 08:55:13;;;;;;;5.50;1.38;;;11.20;99.90;;;;;;5135085;27;20027;-79
2023/12/17 08:57:39;;;;;;;3.13;0.75;;;11.20;99.90;;;;;;5135042;27;20480;-80
2023/12/17 09:00:05;;;;;;;5.22;1.00;;;11.20;99.90;;;;;;5134599;27;20043;-80
2023/12/17 09:02:32;;;;;;;8.70;1.45;;;11.20;99.90;;;;;;5135191;27;20031;-79
2023/12/17 09:04:57;;;;;;;10.95;1.45;;;11.30;99.90;;;;;;5134777;27;20095;-79
2023/12/17 09:07:26;;;;;;;6.43;1.40;;;11.30;99.90;;;;;;5116399;27;20023;-79
2023/12/17 09:09:52;;;;;;;6.45;1.33;;;11.30;99.90;;;;;;5115539;27;20028;-79
2023/12/17 09:12:18;;;;;;;7.53;1.25;;;11.40;99.90;;;;;;5134463;27;20033;-80
2023/12/17 09:14:43;;;;;;;6.43;1.40;;;11.40;99.90;;;;;;5134993;27;20456;-80
2023/12/17 09:17:09;;;;;;;5.85;1.38;;;11.50;99.90;;;;;;5134079;27;20030;-79
2023/12/17 09:19:35;;;;;;;5.90;1.40;;;11.50;99.90;;;;;;5134632;27;20023;-79
2023/12/17 09:22:01;;;;;;;8.13;1.75;;;11.50;99.90;;;;;;5134437;27;20112;-79
2023/12/17 09:24:28;;;;;;;7.07;1.42;;;11.50;99.90;;;;;;5117162;27;20468;-79
2023/12/17 09:26:53;;;;;;;6.07;1.50;;;11.50;99.90;;;;;;5135147;27;20023;-79
2023/12/17 09:29:20;;;;;;;6.68;1.88;;;11.50;99.90;;;;;;5135559;27;20095;-80
2023/12/17 09:31:46;;;;;;;10.32;2.13;;;11.50;99.90;;;;;;5134779;27;20035;-79
2023/12/17 09:34:14;;;;;;;9.25;1.95;;;11.60;99.90;;;;;;5134913;27;20405;-78
2023/12/17 09:36:41;;;;;;;8.95;1.92;;;11.60;99.90;;;;;;5136721;27;20063;-81
2023/12/17 09:39:07;;;;;;;9.57;2.33;;;11.60;99.90;;;;;;5116509;27;20233;-79
2023/12/17 09:41:33;;;;;;;9.93;1.80;;;11.70;99.90;;;;;;5134304;27;20487;-80
2023/12/17 09:43:59;;;;;;;8.20;1.55;;;11.80;99.90;;;;;;5136966;27;20028;-81
2023/12/17 09:46:25;;;;;;;11.13;2.17;;;11.70;99.90;;;;;;5135944;27;20341;-80
2023/12/17 09:48:51;;;;;;;8.85;1.90;;;11.80;99.90;;;;;;5137408;27;20016;-80
2023/12/17 09:51:18;;;;;;;5.80;2.05;;;11.80;99.90;;;;;;5116934;27;20347;-82
2023/12/17 09:53:44;;;;;;;8.75;2.35;;;11.80;99.90;;;;;;5134706;27;20074;-80
2023/12/17 09:56:13;;;;;;;12.60;2.08;;;11.80;99.90;;;;;;5115228;27;20361;-81
2023/12/17 09:58:39;;;;;;;13.27;2.40;;;11.90;99.90;;;;;;5134266;27;20023;-78
2023/12/17 10:01:05;;;;;;;8.90;2.10;;;11.90;99.90;;;;;;5133955;27;20095;-81
2023/12/17 10:03:31;;;;;;;9.00;2.20;;;11.90;99.90;;;;;;5134397;27;20034;-81
2023/12/17 10:05:57;;;;;;;11.57;2.25;;;12.00;99.90;;;;;;5115564;27;20485;-82
2023/12/17 10:08:23;;;;;;;9.63;2.90;;;12.00;99.90;;;;;;5133854;27;20027;-82
2023/12/17 10:10:49;;;;;;;9.93;2.60;;;12.00;99.90;;;;;;5133983;27;20024;-82
2023/12/17 10:13:19;;;;;;;10.00;2.42;;;12.10;99.90;;;;;;5133676;27;20083;-82
2023/12/17 10:15:49;;;;;;;12.82;2.20;;;12.10;99.90;;;;;;5134177;27;20031;-81
2023/12/17 10:18:16;;;;;;;13.00;2.92;;;12.10;99.90;;;;;;5134153;27;20020;-82
2023/12/17 10:20:44;;;;;;;12.38;2.72;;;12.20;99.90;;;;;;5134483;27;20071;-81
2023/12/17 10:23:10;;;;;;;9.75;2.22;;;12.20;99.90;;;;;;5133526;27;20064;-81
2023/12/17 10:25:35;;;;;;;15.75;2.65;;;12.20;99.90;;;;;;5133740;27;20091;-81
2023/12/17 10:28:01;;;;;;;9.10;2.38;;;12.30;99.90;;;;;;5132539;27;20100;-81
2023/12/17 10:30:34;;;;;;;9.00;2.53;;;12.30;99.90;;;;;;5133570;27;20031;-80
2023/12/17 10:33:02;;;;;;;12.95;3.13;;;12.30;99.90;;;;;;5132815;27;20052;-82
2023/12/17 10:35:32;;;;;;;13.98;2.65;;;12.40;99.90;;;;;;5133645;27;20103;-81
2023/12/17 10:38:03;;;;;;;11.68;2.17;;;12.40;99.90;;;;;;5133376;27;20049;-81
2023/12/17 10:40:29;;;;;;;15.95;3.05;;;12.50;99.90;;;;;;5133582;27;20088;-81
2023/12/17 10:42:57;;;;;;;11.35;2.60;;;12.50;99.90;;;;;;5114724;27;20039;-83
2023/12/17 10:45:24;;;;;;;9.15;2.20;;;12.50;99.90;;;;;;5133602;27;20452;-82
2023/12/17 10:47:58;;;;;;;11.63;2.58;;;12.60;99.90;;;;;;5115177;27;20042;-82
2023/12/17 10:50:25;;;;;;;12.00;2.75;;;12.60;99.90;;;;;;5133532;27;20034;-81
2023/12/17 10:52:51;;;;;;;10.45;2.80;;;12.60;99.90;;;;;;5132996;27;20118;-81
2023/12/17 10:55:18;;;;;;;11.20;2.67;;;12.60;99.90;;;;;;5132616;27;20114;-82
2023/12/17 10:57:54;;;;;;;41.15;8.35;;;12.60;99.90;;;;;;5133003;27;20035;-82
2023/12/17 11:00:23;;;;;;;21.95;3.80;;;12.60;99.90;;;;;;5133579;27;20047;-83
2023/12/17 11:02:51;;;;;;;12.50;2.53;;;12.60;99.90;;;;;;5133171;27;20023;-79
2023/12/17 11:05:17;;;;;;;13.45;2.83;;;12.60;99.90;;;;;;5133752;27;20027;-80
2023/12/17 11:07:43;;;;;;;11.65;3.10;;;12.70;99.90;;;;;;5115367;27;20102;-80
2023/12/17 11:10:13;;;;;;;12.65;2.55;;;12.70;99.90;;;;;;5114771;27;20543;-82
2023/12/17 11:12:40;;;;;;;15.63;2.60;;;12.80;99.90;;;;;;5098474;27;20086;-82
2023/12/17 11:15:06;;;;;;;10.32;2.30;;;12.80;99.90;;;;;;5114424;27;20031;-82
2023/12/17 11:17:32;;;;;;;11.40;2.47;;;12.80;99.90;;;;;;5134134;27;20023;-81
2023/12/17 11:20:00;;;;;;;15.68;3.13;;;12.90;99.90;;;;;;5114647;27;20114;-82
2023/12/17 11:22:27;;;;;;;10.60;2.63;;;12.90;99.90;;;;;;5133199;27;20027;-81
2023/12/17 11:24:55;;;;;;;7.05;2.13;;;12.90;99.90;;;;;;5132927;27;20019;-82
2023/12/17 11:27:22;;;;;;;13.82;2.83;;;12.80;99.90;;;;;;5133135;27;20023;-80
2023/12/17 11:29:50;;;;;;;7.75;2.20;;;12.80;99.90;;;;;;5133095;27;20031;-82
2023/12/17 11:32:17;;;;;;;13.85;2.50;;;12.80;99.90;;;;;;5133078;27;20024;-81
2023/12/17 11:34:48;;;;;;;15.15;2.90;;;12.80;99.90;;;;;;5133728;27;20095;-81
2023/12/17 11:37:18;;;;;;;10.30;2.60;;;12.80;99.90;;;;;;5133831;27;20022;-83
2023/12/17 11:39:51;;;;;;;10.63;2.97;;;12.80;99.90;;;;;;5113786;27;20672;-79
2023/12/17 11:42:18;;;;;;;15.52;2.70;;;12.80;99.90;;;;;;5113017;27;20031;-81
2023/12/17 11:44:51;;;;;;;9.07;3.10;;;12.90;99.90;;;;;;5113436;27;20027;-81
2023/12/17 11:47:24;;;;;;;18.10;3.03;;;12.90;99.90;;;;;;5131269;27;20027;-81
2023/12/17 11:49:56;;;;;;;11.93;2.28;;;12.90;99.90;;;;;;5131574;27;20033;-80
2023/12/17 11:52:22;;;;;;;13.75;2.50;;;13.00;99.90;;;;;;5132177;27;20126;-80
2023/12/17 11:55:01;;;;;;;12.40;2.60;;;12.90;99.90;;;;;;5132009;27;20483;-81
2023/12/17 11:57:27;;;;;;;9.05;2.30;;;13.00;99.90;;;;;;5132096;27;20336;-80
2023/12/17 11:59:53;;;;;;;13.30;2.75;;;13.00;99.90;;;;;;5132147;27;20047;-81
2023/12/17 12:02:21;;;;;;;11.25;2.33;;;13.00;99.90;;;;;;5131297;27;20034;-80
2023/12/17 12:04:48;;;;;;;10.57;2.78;;;13.00;99.90;;;;;;5131388;27;20109;-81
2023/12/17 12:07:18;;;;;;;10.05;2.35;;;13.00;99.90;;;;;;5131746;27;20038;-82
2023/12/17 12:09:45;;;;;;;12.25;2.95;;;13.00;99.90;;;;;;5131820;27;20026;-82
2023/12/17 12:12:26;;;;;;;12.70;2.53;;;13.00;99.90;;;;;;5131549;28;20027;-82
2023/12/17 12:14:53;;;;;;;9.73;2.33;;;13.00;99.90;;;;;;5131763;28;20035;-82
2023/12/17 12:17:41;;;;;;;11.27;3.00;;;12.90;99.90;;;;;;5131002;28;20500;-81
2023/12/17 12:20:08;;;;;;;10.93;2.65;;;12.90;99.90;;;;;;5131439;28;20467;-81
2023/12/17 12:22:38;;;;;;;12.52;2.38;;;12.90;99.90;;;;;;5132176;28;20038;-82
2023/12/17 12:25:05;;;;;;;11.77;2.47;;;12.90;99.90;;;;;;5112756;28;20038;-80
2023/12/17 12:27:31;;;;;;;9.77;2.33;;;12.90;99.90;;;;;;5131596;28;20023;-82
2023/12/17 12:29:57;;;;;;;13.63;2.38;;;12.90;99.90;;;;;;5131775;28;20030;-82
2023/12/17 12:32:27;;;;;;;8.75;2.42;;;12.90;99.90;;;;;;5113817;28;20038;-82
2023/12/17 12:34:55;;;;;;;8.95;2.47;;;12.90;99.90;;;;;;5114009;28;20023;-83
2023/12/17 12:37:37;;;;;;;13.23;2.25;;;13.00;99.90;;;;;;5132008;28;20030;-82
2023/12/17 12:40:05;;;;;;;9.17;2.57;;;13.00;99.90;;;;;;5131304;28;20051;-82
2023/12/17 12:42:32;;;;;;;14.88;2.50;;;13.10;99.90;;;;;;5113305;28;20263;-81